Time;durP1;ratioP1;P1;durP2;ratioP2;P2;SDS_P1;SDS_P2;PMS_P1;PMS_P2;Temp;Humidity;BMP_temperature;BMP_pressure;BME280_temperature;BME280_humidity;BME280_pressure;Samples;Min_cycle;Max_cycle;Signal;HPM_P1;HPM_P2
2022/07/13 00:00:16;;;;;;;21.30;8.90;;;;;;;20.24;81.43;101966.47;5008583;28;20156;-75
2022/07/13 00:02:41;;;;;;;18.63;8.73;;;;;;;20.24;83.88;101956.41;5031205;28;20426;-75
2022/07/13 00:05:07;;;;;;;28.95;13.35;;;;;;;20.24;82.01;101970.06;5029050;28;20033;-75
2022/07/13 00:07:33;;;;;;;28.35;12.07;;;;;;;20.25;80.64;101965.47;5029479;28;20030;-75
2022/07/13 00:09:59;;;;;;;20.27;8.38;;;;;;;20.23;75.84;101943.75;4999874;28;20026;-75
2022/07/13 00:12:24;;;;;;;21.20;8.95;;;;;;;20.27;75.84;101935.28;5022394;28;20374;-75
2022/07/13 00:14:50;;;;;;;18.40;7.78;;;;;;;20.28;73.91;101931.53;5030492;28;20116;-75
2022/07/13 00:17:15;;;;;;;26.30;8.50;;;;;;;20.29;75.58;101934.09;5011157;28;20060;-75
2022/07/13 00:19:40;;;;;;;24.92;10.30;;;;;;;20.30;74.37;101935.84;5026901;28;20113;-75
2022/07/13 00:22:05;;;;;;;26.08;11.07;;;;;;;20.30;76.44;101924.91;5029425;28;20026;-75
2022/07/13 00:24:31;;;;;;;23.92;9.10;;;;;;;20.30;72.38;101922.19;5029803;28;20029;-75
2022/07/13 00:26:56;;;;;;;20.38;8.15;;;;;;;20.33;71.80;101915.56;5030737;28;20033;-75
2022/07/13 00:29:21;;;;;;;19.98;7.88;;;;;;;20.34;71.29;101925.50;5027363;28;20795;-75
2022/07/13 00:31:46;;;;;;;27.73;9.10;;;;;;;20.34;75.73;101929.06;5029289;28;20025;-75
2022/07/13 00:34:12;;;;;;;19.10;8.15;;;;;;;20.33;76.69;101923.75;5001512;28;20037;-77
2022/07/13 00:36:38;;;;;;;35.88;15.20;;;;;;;20.30;77.59;101914.00;5030912;28;20025;-77
2022/07/13 00:39:03;;;;;;;35.50;15.40;;;;;;;20.28;76.25;101905.13;5031505;28;20404;-77
2022/07/13 00:41:28;;;;;;;28.95;12.20;;;;;;;20.25;76.26;101903.53;5021367;28;20114;-77
2022/07/13 00:44:08;;;;;;;22.42;10.50;;;;;;;20.26;77.72;101898.91;4996783;28;20497;-77
2022/07/13 00:46:35;;;;;;;18.10;7.45;;;;;;;20.22;73.14;101887.47;5027719;28;20029;-77
2022/07/13 00:49:00;;;;;;;22.30;9.27;;;;;;;20.21;78.07;101884.88;5012693;28;20060;-77
2022/07/13 00:51:27;;;;;;;18.98;7.53;;;;;;;20.19;77.72;101882.31;4995793;28;20493;-77
2022/07/13 00:53:52;;;;;;;24.20;10.00;;;;;;;20.18;73.92;101888.78;5024521;28;20118;-77
2022/07/13 00:56:18;;;;;;;19.85;8.50;;;;;;;20.18;73.31;101887.91;5025196;28;20108;-77
2022/07/13 00:58:43;;;;;;;21.58;8.63;;;;;;;20.18;74.45;101877.00;5026703;28;20022;-77
2022/07/13 01:01:08;;;;;;;22.63;10.05;;;;;;;20.17;75.40;101881.56;4999817;28;20154;-75
2022/07/13 01:03:34;;;;;;;23.38;8.90;;;;;;;20.17;72.52;101876.13;5008153;28;20056;-75
2022/07/13 01:06:00;;;;;;;21.35;7.53;;;;;;;20.18;72.56;101883.31;5006734;28;20037;-75
2022/07/13 01:08:25;;;;;;;18.27;8.00;;;;;;;20.17;77.45;101870.66;4998879;28;20121;-75
2022/07/13 01:10:51;;;;;;;19.70;7.10;;;;;;;20.16;74.55;101871.69;5006188;28;20042;-75
2022/07/13 01:13:18;;;;;;;16.67;6.82;;;;;;;20.16;74.48;101881.72;5009943;28;20386;-75
2022/07/13 01:15:43;;;;;;;22.38;7.80;;;;;;;20.15;76.00;101869.97;5009270;28;20040;-75
2022/07/13 01:18:13;;;;;;;19.13;6.47;;;;;;;20.15;70.80;101878.16;5006897;28;20018;-75
2022/07/13 01:20:40;;;;;;;16.42;6.47;;;;;;;20.16;73.64;101868.97;5002641;28;20112;-75
2022/07/13 01:23:16;;;;;;;18.88;7.00;;;;;;;20.17;76.77;101870.66;5003206;28;20058;-75
2022/07/13 01:25:41;;;;;;;16.50;6.05;;;;;;;20.15;75.79;101863.66;5005390;28;20030;-75
2022/07/13 01:28:07;;;;;;;18.10;6.25;;;;;;;20.15;76.18;101867.22;5009601;28;20029;-75
2022/07/13 01:30:32;;;;;;;16.42;5.78;;;;;;;20.13;70.78;101862.94;5008465;28;20041;-75
2022/07/13 01:32:58;;;;;;;18.13;5.68;;;;;;;20.14;76.66;101873.69;4996380;28;20026;-75
2022/07/13 01:35:24;;;;;;;15.05;5.80;;;;;;;20.13;74.38;101863.78;5000609;28;20034;-75
2022/07/13 01:37:50;;;;;;;16.00;5.72;;;;;;;20.12;71.42;101864.81;5009037;28;20029;-75
2022/07/13 01:40:16;;;;;;;16.95;5.95;;;;;;;20.13;75.29;101863.78;5006956;28;20045;-75
2022/07/13 01:42:47;;;;;;;21.00;6.28;;;;;;;20.13;76.19;101863.78;5011812;28;20113;-75
2022/07/13 01:45:14;;;;;;;14.57;5.55;;;;;;;20.12;74.45;101861.19;5011889;28;20034;-75
2022/07/13 01:47:45;;;;;;;15.60;6.45;;;;;;;20.12;74.98;101869.38;5004161;28;20032;-75
2022/07/13 01:50:12;;;;;;;13.50;5.55;;;;;;;20.12;77.54;101867.53;5005875;28;20025;-75
2022/07/13 01:52:38;;;;;;;20.75;6.00;;;;;;;20.11;76.19;101863.09;5011144;28;20108;-75
2022/07/13 01:55:05;;;;;;;14.50;5.80;;;;;;;20.08;72.17;101866.13;5009973;28;20443;-75
2022/07/13 01:57:32;;;;;;;15.77;5.68;;;;;;;20.06;74.07;101865.41;5005065;28;20032;-75
2022/07/13 02:00:05;;;;;;;15.32;5.97;;;;;;;20.08;74.86;101866.13;5014238;28;20053;-75
2022/07/13 02:02:30;;;;;;;16.52;6.53;;;;;;;20.07;71.91;101858.94;5014205;28;20060;-75
2022/07/13 02:04:56;;;;;;;17.70;5.82;;;;;;;20.07;74.33;101861.66;5027230;28;20534;-75
2022/07/13 02:07:22;;;;;;;14.80;5.47;;;;;;;20.05;67.96;101853.63;5034099;28;20040;-75
2022/07/13 02:09:48;;;;;;;25.05;8.90;;;;;;;20.06;71.96;101849.03;5012808;28;20036;-75
2022/07/13 02:12:15;;;;;;;41.00;14.13;;;;;;;20.06;73.62;101847.16;5032421;28;20035;-75
2022/07/13 02:14:40;;;;;;;17.77;6.18;;;;;;;20.05;70.77;101839.97;5022622;28;20021;-75
2022/07/13 02:17:06;;;;;;;17.38;5.90;;;;;;;20.05;71.82;101841.88;5013472;28;20088;-75
2022/07/13 02:19:31;;;;;;;18.13;6.00;;;;;;;20.05;74.10;101833.66;5015301;28;20021;-75
2022/07/13 02:21:56;;;;;;;17.20;5.75;;;;;;;20.04;68.96;101826.50;5014542;28;20388;-75
2022/07/13 02:24:21;;;;;;;15.85;5.55;;;;;;;20.03;70.05;101824.75;5006376;28;20416;-75
2022/07/13 02:26:47;;;;;;;21.23;6.60;;;;;;;20.03;69.95;101833.81;5026808;28;20030;-75
2022/07/13 02:29:12;;;;;;;16.88;6.20;;;;;;;20.03;70.39;101827.50;5033086;28;20377;-75
2022/07/13 02:31:37;;;;;;;19.85;5.93;;;;;;;20.03;70.84;101824.75;5026330;28;20026;-75
2022/07/13 02:34:02;;;;;;;14.27;5.00;;;;;;;20.04;67.80;101816.41;5031899;28;20108;-75
2022/07/13 02:36:28;;;;;;;14.88;5.55;;;;;;;20.04;69.68;101810.97;5027810;28;20623;-75
2022/07/13 02:38:53;;;;;;;19.63;6.93;;;;;;;20.06;69.43;101816.28;5024257;28;20022;-75
2022/07/13 02:41:18;;;;;;;16.48;6.35;;;;;;;20.05;68.69;101817.31;5001033;28;20061;-75
2022/07/13 02:43:44;;;;;;;20.10;7.32;;;;;;;20.06;69.46;101816.28;5032299;28;20512;-75
2022/07/13 02:46:09;;;;;;;16.92;5.95;;;;;;;20.06;69.80;101813.56;5027950;28;20025;-75
2022/07/13 02:48:34;;;;;;;16.50;5.53;;;;;;;20.07;66.93;101793.44;5028842;28;20025;-75
2022/07/13 02:50:59;;;;;;;20.33;5.43;;;;;;;20.10;66.36;101786.81;5024424;28;20032;-75
2022/07/13 02:53:25;;;;;;;18.52;6.47;;;;;;;20.10;70.04;101805.94;5000135;28;20024;-75
2022/07/13 02:55:50;;;;;;;16.08;5.13;;;;;;;20.11;66.76;101815.84;5021303;28;20033;-75
2022/07/13 02:58:16;;;;;;;12.15;5.05;;;;;;;20.13;65.86;101798.28;5029558;28;20021;-75
2022/07/13 03:00:41;;;;;;;16.70;5.35;;;;;;;20.13;66.88;101803.72;5028876;28;20109;-75
2022/07/13 03:03:06;;;;;;;13.98;5.40;;;;;;;20.14;67.38;101801.88;5030162;28;20481;-75
2022/07/13 03:05:31;;;;;;;21.15;6.82;;;;;;;20.13;67.35;101806.47;5008960;28;20041;-75
2022/07/13 03:07:57;;;;;;;18.77;6.70;;;;;;;20.13;68.22;101803.72;5029622;28;20022;-75
2022/07/13 03:10:22;;;;;;;14.90;5.63;;;;;;;20.13;67.52;101811.91;5012761;28;20071;-75
2022/07/13 03:12:47;;;;;;;15.55;5.47;;;;;;;20.12;68.88;101810.22;5026806;28;20405;-75
2022/07/13 03:15:12;;;;;;;14.32;5.20;;;;;;;20.12;67.91;101810.22;5008208;28;20064;-75
2022/07/13 03:17:40;;;;;;;15.43;5.60;;;;;;;20.11;70.42;101808.50;5000171;28;20097;-75
2022/07/13 03:20:07;;;;;;;16.30;5.53;;;;;;;20.11;68.54;101811.22;5005578;28;20033;-75
2022/07/13 03:22:32;;;;;;;16.23;5.70;;;;;;;20.11;69.49;101800.31;5030265;28;20599;-75
2022/07/13 03:24:57;;;;;;;15.95;5.82;;;;;;;20.11;68.20;101800.31;5032716;28;20066;-75
2022/07/13 03:27:22;;;;;;;15.40;5.70;;;;;;;20.11;67.91;101794.84;5007175;28;20144;-75
2022/07/13 03:29:48;;;;;;;16.17;5.82;;;;;;;20.09;68.76;101799.63;5019538;28;20029;-75
2022/07/13 03:32:13;;;;;;;14.23;5.07;;;;;;;20.10;68.35;101804.03;5031206;28;20029;-75
2022/07/13 03:34:38;;;;;;;14.32;5.07;;;;;;;20.10;69.55;101801.31;5029812;28;20496;-75
2022/07/13 03:37:04;;;;;;;18.15;5.80;;;;;;;20.10;68.82;101793.13;5026072;28;20018;-75
2022/07/13 03:39:29;;;;;;;17.27;6.47;;;;;;;20.09;67.71;101788.69;5012288;28;20412;-75
2022/07/13 03:41:55;;;;;;;17.75;6.28;;;;;;;20.10;69.20;101795.84;5026623;28;20029;-75
2022/07/13 03:44:20;;;;;;;19.98;7.68;;;;;;;20.10;67.67;101790.41;5029356;28;20029;-75
2022/07/13 03:46:45;;;;;;;18.00;6.95;;;;;;;20.10;67.63;101787.66;5030186;28;20025;-75
2022/07/13 03:49:12;;;;;;;22.27;6.47;;;;;;;20.11;67.89;101783.94;5024778;28;20017;-75
2022/07/13 03:51:38;;;;;;;18.38;5.88;;;;;;;20.13;66.29;101789.25;5005116;28;20587;-75
2022/07/13 03:54:04;;;;;;;18.67;6.20;;;;;;;20.12;67.57;101788.41;5028503;28;20049;-75
2022/07/13 03:56:29;;;;;;;19.35;6.47;;;;;;;20.12;67.27;101788.41;5028623;28;20108;-75
2022/07/13 03:58:55;;;;;;;16.20;5.28;;;;;;;20.13;66.82;101787.34;5029399;28;20536;-75
2022/07/13 04:01:20;;;;;;;17.88;6.53;;;;;;;20.13;67.09;101792.81;5011374;28;20072;-75
2022/07/13 04:03:46;;;;;;;14.55;5.43;;;;;;;20.13;67.86;101786.50;4995240;28;20389;-75
2022/07/13 04:06:12;;;;;;;13.90;5.05;;;;;;;20.13;67.16;101792.81;5014560;28;20068;-75
2022/07/13 04:08:37;;;;;;;16.27;5.50;;;;;;;20.13;67.36;101787.34;5028930;28;20566;-75
2022/07/13 04:11:02;;;;;;;17.38;6.00;;;;;;;20.14;66.22;101794.53;5014054;28;20033;-75
2022/07/13 04:13:28;;;;;;;18.17;5.47;;;;;;;20.14;67.02;101794.53;5020820;28;20033;-75
2022/07/13 04:15:53;;;;;;;17.23;5.82;;;;;;;20.15;67.10;101790.81;5031953;28;20033;-75
2022/07/13 04:18:18;;;;;;;13.98;5.03;;;;;;;20.16;65.90;101786.19;5032641;28;20022;-75
2022/07/13 04:20:44;;;;;;;17.58;5.55;;;;;;;20.15;66.12;101782.63;5023901;28;20035;-75
2022/07/13 04:23:09;;;;;;;17.98;6.63;;;;;;;20.17;67.01;101782.47;5021903;28;20021;-75
2022/07/13 04:25:34;;;;;;;15.35;5.00;;;;;;;20.17;65.90;101777.88;5025231;28;20074;-75
2022/07/13 04:27:59;;;;;;;15.43;5.65;;;;;;;20.18;66.03;101778.75;5029715;28;20033;-75
2022/07/13 04:30:25;;;;;;;20.20;6.20;;;;;;;20.18;65.97;101770.56;4999760;28;20044;-75
2022/07/13 04:32:50;;;;;;;19.00;5.75;;;;;;;20.19;66.96;101770.41;5006700;28;20025;-75
2022/07/13 04:35:15;;;;;;;13.70;4.50;;;;;;;20.20;66.53;101766.63;5025123;28;20022;-75
2022/07/13 04:37:41;;;;;;;14.55;5.15;;;;;;;20.22;65.96;101769.22;5011560;28;20080;-75
2022/07/13 04:40:06;;;;;;;16.30;5.50;;;;;;;20.23;66.46;101769.06;5024856;28;20060;-75
2022/07/13 04:42:32;;;;;;;14.68;4.57;;;;;;;20.24;66.01;101767.19;5030674;28;20025;-75
2022/07/13 04:44:57;;;;;;;16.20;5.20;;;;;;;20.24;65.91;101765.31;5031420;28;20035;-75
2022/07/13 04:47:22;;;;;;;15.27;5.60;;;;;;;20.27;66.42;101766.88;5030926;28;20038;-75
2022/07/13 04:49:47;;;;;;;13.70;4.88;;;;;;;20.28;66.55;101770.47;5020383;28;20029;-75
2022/07/13 04:52:13;;;;;;;14.82;5.25;;;;;;;20.30;65.46;101768.47;5018823;28;20022;-75
2022/07/13 04:54:38;;;;;;;14.45;4.68;;;;;;;20.32;66.16;101769.16;4995632;28;20505;-75
2022/07/13 04:57:03;;;;;;;15.93;5.55;;;;;;;20.34;65.05;101764.41;4994914;28;20117;-75
2022/07/13 04:59:28;;;;;;;16.17;5.18;;;;;;;20.35;65.82;101757.91;5023957;28;20040;-75
2022/07/13 05:01:54;;;;;;;14.07;5.07;;;;;;;20.37;65.81;101756.75;5021417;28;20033;-75
2022/07/13 05:04:19;;;;;;;12.02;4.55;;;;;;;20.38;65.53;101758.47;5025761;28;20021;-75
2022/07/13 05:06:44;;;;;;;12.98;4.40;;;;;;;20.40;64.92;101761.06;5031408;28;20087;-75
2022/07/13 05:09:10;;;;;;;13.73;4.90;;;;;;;20.42;64.89;101765.34;5027757;28;20421;-75
2022/07/13 05:11:35;;;;;;;13.00;4.78;;;;;;;20.44;65.25;101762.47;5032526;28;20025;-75
2022/07/13 05:14:00;;;;;;;14.07;4.72;;;;;;;20.45;65.63;101758.72;5014537;28;20037;-75
2022/07/13 05:16:26;;;;;;;15.05;4.80;;;;;;;20.48;64.72;101763.84;5007265;28;20539;-75
2022/07/13 05:18:51;;;;;;;13.13;4.20;;;;;;;20.52;64.19;101769.88;5025765;28;20034;-75
2022/07/13 05:21:16;;;;;;;11.88;4.45;;;;;;;20.54;64.68;101759.66;5023903;28;20497;-75
2022/07/13 05:23:42;;;;;;;14.50;4.57;;;;;;;20.56;64.34;101761.22;5014766;28;20033;-75
2022/07/13 05:26:07;;;;;;;14.20;4.68;;;;;;;20.60;64.68;101751.69;5020450;28;20037;-75
2022/07/13 05:28:32;;;;;;;13.25;4.47;;;;;;;20.62;63.94;101758.88;5033117;28;20025;-75
2022/07/13 05:30:58;;;;;;;11.75;4.18;;;;;;;20.64;63.66;101754.97;5030216;28;20036;-75
2022/07/13 05:33:23;;;;;;;12.05;4.60;;;;;;;20.65;63.83;101764.03;5013723;28;20051;-75
2022/07/13 05:35:48;;;;;;;14.20;4.80;;;;;;;20.66;63.46;101766.63;5015509;28;20092;-75
2022/07/13 05:38:14;;;;;;;15.13;4.68;;;;;;;20.69;64.15;101771.78;5011786;28;20104;-75
2022/07/13 05:40:39;;;;;;;11.95;4.45;;;;;;;20.70;63.81;101767.16;5031497;28;20032;-76
2022/07/13 05:43:05;;;;;;;14.00;4.43;;;;;;;20.70;63.19;101772.63;5029438;28;20029;-76
2022/07/13 05:45:30;;;;;;;15.15;4.68;;;;;;;20.70;63.44;101769.91;5032104;28;20505;-76
2022/07/13 05:47:55;;;;;;;15.57;4.90;;;;;;;20.70;63.18;101770.75;5011319;28;20044;-76
2022/07/13 05:50:21;;;;;;;14.70;4.63;;;;;;;20.72;63.29;101776.94;5023851;28;20524;-76
2022/07/13 05:52:46;;;;;;;14.95;4.75;;;;;;;20.74;63.30;101776.78;5021278;28;20045;-76
2022/07/13 05:55:11;;;;;;;12.98;4.60;;;;;;;20.77;64.26;101781.91;5001708;28;20445;-76
2022/07/13 05:57:38;;;;;;;13.10;4.50;;;;;;;20.79;62.99;101782.59;5018119;28;20466;-75
2022/07/13 06:00:06;;;;;;;15.00;4.65;;;;;;;20.84;62.64;101785.75;4997687;28;20129;-75
2022/07/13 06:02:31;;;;;;;12.05;4.35;;;;;;;20.86;63.26;101783.69;5018943;28;20029;-75
2022/07/13 06:04:57;;;;;;;10.50;4.00;;;;;;;20.87;63.41;101781.84;5023973;28;20501;-75
2022/07/13 06:07:22;;;;;;;14.05;4.57;;;;;;;20.89;63.54;101790.72;5019817;28;20038;-75
2022/07/13 06:09:48;;;;;;;13.35;4.65;;;;;;;20.91;63.99;101792.28;5034194;28;20032;-75
2022/07/13 06:12:13;;;;;;;13.23;4.53;;;;;;;20.93;63.24;101782.06;5032579;28;20031;-76
2022/07/13 06:14:39;;;;;;;13.63;4.32;;;;;;;20.95;62.94;101781.91;5032338;28;20026;-75
2022/07/13 06:17:04;;;;;;;14.88;4.38;;;;;;;21.00;64.41;101786.91;5026917;28;20036;-75
2022/07/13 06:19:29;;;;;;;13.70;4.30;;;;;;;21.02;64.21;101793.06;5005108;28;20022;-75
2022/07/13 06:21:54;;;;;;;13.35;4.72;;;;;;;21.03;64.13;101789.31;5033437;28;20061;-75
2022/07/13 06:24:20;;;;;;;13.00;4.25;;;;;;;21.06;64.53;101783.53;5030391;28;20045;-75
2022/07/13 06:26:45;;;;;;;13.43;4.75;;;;;;;21.10;63.80;101784.94;5014861;28;20025;-75
2022/07/13 06:29:10;;;;;;;12.60;4.72;;;;;;;21.12;63.13;101788.38;5006825;28;20366;-75
2022/07/13 06:31:36;;;;;;;13.43;4.38;;;;;;;21.16;64.37;101778.84;5009594;28;20041;-74
2022/07/13 06:34:01;;;;;;;18.10;5.30;;;;;;;21.18;64.65;101782.25;5014739;28;20041;-75
2022/07/13 06:36:26;;;;;;;14.63;5.00;;;;;;;21.20;64.87;101788.44;5014320;28;20032;-75
2022/07/13 06:38:52;;;;;;;13.38;4.78;;;;;;;21.23;64.06;101785.38;5008415;28;20121;-75
2022/07/13 06:41:17;;;;;;;14.48;4.47;;;;;;;21.26;64.63;101785.06;5026222;28;20029;-75
2022/07/13 06:43:43;;;;;;;10.40;4.50;;;;;;;21.27;64.41;101786.78;5028681;28;20448;-76
2022/07/13 06:46:08;;;;;;;14.45;4.70;;;;;;;21.32;64.28;101782.69;5030082;28;20033;-76
2022/07/13 06:48:35;;;;;;;13.60;4.70;;;;;;;21.33;64.71;101778.94;5032484;28;20033;-76
2022/07/13 06:51:01;;;;;;;16.75;4.68;;;;;;;21.37;63.44;101780.34;5016257;28;20112;-76
2022/07/13 06:53:26;;;;;;;14.15;4.78;;;;;;;21.43;63.48;101777.78;5007198;28;20116;-74
2022/07/13 06:55:51;;;;;;;12.48;4.45;;;;;;;21.46;65.27;101771.16;5029879;28;20029;-74
2022/07/13 06:58:17;;;;;;;16.75;5.40;;;;;;;21.53;64.53;101775.00;5032600;28;20358;-74
2022/07/13 07:00:42;;;;;;;14.07;4.75;;;;;;;21.61;64.86;101776.91;5043449;28;20061;-75
2022/07/13 07:03:07;;;;;;;18.63;5.63;;;;;;;21.60;65.48;101775.22;5038954;28;20033;-75
2022/07/13 07:05:33;;;;;;;12.90;4.70;;;;;;;21.60;64.99;101775.22;5027290;28;20021;-74
2022/07/13 07:08:00;;;;;;;16.45;5.35;;;;;;;21.64;65.64;101777.44;5028362;28;20038;-74
2022/07/13 07:10:25;;;;;;;15.77;5.40;;;;;;;21.68;65.12;101790.81;5038869;28;20036;-75
2022/07/13 07:12:50;;;;;;;15.40;5.10;;;;;;;21.69;65.34;101785.16;5011007;28;20033;-75
2022/07/13 07:15:15;;;;;;;15.52;5.32;;;;;;;21.68;66.62;101785.34;5023562;28;20378;-75
2022/07/13 07:17:45;;;;;;;15.23;5.70;;;;;;;21.70;66.12;101794.22;5014197;28;20017;-75
2022/07/13 07:20:13;;;;;;;18.67;6.13;;;;;;;21.70;65.64;101786.00;5019787;28;20026;-72
2022/07/13 07:22:38;;;;;;;19.13;6.90;;;;;;;21.81;66.47;101793.94;5016521;28;20037;-72
2022/07/13 07:25:03;;;;;;;18.27;6.20;;;;;;;21.89;65.12;101785.78;5029635;28;20736;-76
2022/07/13 07:27:29;;;;;;;18.40;6.72;;;;;;;21.95;65.78;101784.28;5031824;28;20025;-76
2022/07/13 07:29:54;;;;;;;16.52;6.28;;;;;;;22.00;64.37;101779.16;5006700;28;20028;-76
2022/07/13 07:32:19;;;;;;;22.27;6.60;;;;;;;22.08;65.60;101783.78;5021138;28;20017;-76
2022/07/13 07:34:45;;;;;;;19.35;7.20;;;;;;;22.11;64.89;101783.44;5003558;28;20033;-76
2022/07/13 07:37:10;;;;;;;17.83;6.93;;;;;;;22.16;65.40;101776.44;5019803;28;20022;-76
2022/07/13 07:39:36;;;;;;;17.02;7.55;;;;;;;22.18;64.24;101779.03;5004477;28;20424;-76
2022/07/13 07:42:03;;;;;;;16.85;6.30;;;;;;;22.20;65.81;101774.25;5018782;28;20484;-76
2022/07/13 07:44:29;;;;;;;20.38;7.00;;;;;;;22.23;65.20;101773.91;5028475;28;20156;-76
2022/07/13 07:46:54;;;;;;;20.25;6.70;;;;;;;22.26;66.09;101768.09;5025534;28;20427;-76
2022/07/13 07:49:20;;;;;;;18.63;6.20;;;;;;;22.28;67.18;101778.91;5024705;28;20110;-76
2022/07/13 07:51:45;;;;;;;18.85;6.68;;;;;;;22.29;67.53;101776.00;5032099;28;20401;-76
2022/07/13 07:54:10;;;;;;;18.55;7.22;;;;;;;22.36;66.36;101780.81;5033114;28;20065;-76
2022/07/13 07:56:36;;;;;;;20.88;7.93;;;;;;;22.39;64.92;101780.47;5031043;28;20469;-76
2022/07/13 07:59:01;;;;;;;17.75;7.07;;;;;;;22.43;65.06;101766.31;5028038;28;20029;-76
2022/07/13 08:01:28;;;;;;;20.88;8.07;;;;;;;22.48;66.78;101765.78;5031384;28;20041;-76
2022/07/13 08:03:54;;;;;;;18.55;7.78;;;;;;;22.49;66.32;101771.09;5014883;28;20400;-76
2022/07/13 08:06:20;;;;;;;20.58;8.50;;;;;;;22.55;66.88;101769.56;5032573;28;20029;-76
2022/07/13 08:08:45;;;;;;;20.50;7.93;;;;;;;22.63;67.38;101772.31;5014902;28;20044;-76
2022/07/13 08:11:16;;;;;;;20.10;8.00;;;;;;;22.67;67.33;101767.34;5014872;28;20551;-76
2022/07/13 08:13:41;;;;;;;19.83;8.43;;;;;;;22.68;66.75;101777.28;5032783;28;20037;-76
2022/07/13 08:16:07;;;;;;;17.63;7.50;;;;;;;22.72;67.09;101777.81;5032424;28;20436;-76
2022/07/13 08:18:32;;;;;;;20.13;7.85;;;;;;;22.79;68.50;101781.56;5014969;28;20108;-76
2022/07/13 08:20:57;;;;;;;19.63;6.95;;;;;;;22.77;67.38;101773.53;5013626;28;20026;-76
2022/07/13 08:26:07;;;;;;;18.27;8.13;;;;;;;22.92;67.08;101784.66;5032438;28;20452;-76
2022/07/13 08:28:32;;;;;;;18.80;7.60;;;;;;;22.95;67.31;101786.22;5014685;28;20029;-76
2022/07/13 08:30:57;;;;;;;17.15;6.03;;;;;;;22.98;66.65;101791.34;5032309;28;20030;-76
2022/07/13 08:38:50;;;;;;;17.75;7.22;;;;;;;23.19;65.01;101783.50;5032340;28;20413;-75
2022/07/13 08:41:15;;;;;;;14.02;6.10;;;;;;;23.17;65.53;101791.00;5032256;28;20025;-75
2022/07/13 08:43:41;;;;;;;16.17;6.82;;;;;;;23.25;65.36;101789.28;5014832;28;20087;-75
2022/07/13 08:46:08;;;;;;;19.15;6.80;;;;;;;23.32;64.97;101793.91;5013177;28;20025;-77
2022/07/13 08:48:37;;;;;;;17.50;6.80;;;;;;;23.33;65.01;101792.88;5032110;28;20109;-76
2022/07/13 08:51:03;;;;;;;19.48;6.93;;;;;;;23.38;64.49;101798.72;4997862;28;20065;-77
2022/07/13 08:53:28;;;;;;;17.00;6.57;;;;;;;23.45;65.20;101789.78;5012386;28;20068;-77
2022/07/13 08:55:56;;;;;;;17.40;6.63;;;;;;;23.51;64.35;101792.66;4994524;28;20493;-77
2022/07/13 08:58:22;;;;;;;17.80;6.25;;;;;;;23.51;63.55;101787.19;5012274;28;20024;-77
2022/07/13 09:00:48;;;;;;;17.15;5.68;;;;;;;23.56;64.02;101794.91;5011907;28;20552;-77
2022/07/13 09:03:13;;;;;;;17.27;6.60;;;;;;;23.56;64.83;101797.66;5005543;28;20029;-77
2022/07/13 09:05:39;;;;;;;16.23;6.97;;;;;;;23.60;63.72;101796.25;5014119;28;20501;-77
2022/07/13 09:08:07;;;;;;;19.02;7.38;;;;;;;23.67;63.98;101808.22;5014096;28;20041;-77
2022/07/13 09:10:51;;;;;;;16.83;6.32;;;;;;;23.69;65.91;101799.81;5031752;28;20030;-76
2022/07/13 09:13:34;;;;;;;15.65;5.65;;;;;;;23.73;64.28;101799.31;5014093;28;20104;-76
2022/07/13 09:16:19;;;;;;;15.80;6.20;;;;;;;23.80;64.32;101809.59;5013942;28;20025;-76
2022/07/13 09:18:53;;;;;;;18.83;6.32;;;;;;;23.85;64.40;101807.16;5013603;28;20021;-76
2022/07/13 09:21:20;;;;;;;16.92;5.97;;;;;;;23.89;63.25;101809.38;4994358;28;20482;-76
2022/07/13 09:23:56;;;;;;;15.18;5.75;;;;;;;23.82;64.47;101810.25;5012238;28;20104;-76
2022/07/13 09:26:21;;;;;;;18.08;6.22;;;;;;;23.87;63.57;101808.72;5015308;28;20037;-76
2022/07/13 09:28:50;;;;;;;16.73;5.97;;;;;;;23.87;62.98;101810.63;5018606;28;20402;-77
2022/07/13 09:31:17;;;;;;;15.57;6.63;;;;;;;23.92;64.01;101793.63;4994415;28;20112;-77
2022/07/13 09:33:44;;;;;;;16.55;6.47;;;;;;;23.93;63.81;101820.03;5005863;28;20492;-77
2022/07/13 09:36:14;;;;;;;14.52;6.18;;;;;;;23.91;62.46;101814.75;5012007;28;20029;-77
2022/07/13 09:38:42;;;;;;;13.98;5.95;;;;;;;23.96;62.24;101811.44;4994229;28;20068;-77
2022/07/13 09:41:26;;;;;;;13.65;5.10;;;;;;;23.97;62.64;101814.03;5005524;28;20041;-77
2022/07/13 09:46:49;;;;;;;15.98;5.63;;;;;;;23.96;61.26;101798.56;5020965;28;20040;-77
2022/07/13 09:49:16;;;;;;;12.90;5.10;;;;;;;23.93;60.42;101801.66;5024727;28;20033;-77
2022/07/13 09:51:44;;;;;;;13.27;5.18;;;;;;;23.97;62.42;101797.53;5018999;28;20029;-77
2022/07/13 09:54:11;;;;;;;13.73;5.03;;;;;;;23.96;61.87;101805.97;5011913;28;20474;-77
2022/07/13 09:56:36;;;;;;;13.10;5.57;;;;;;;23.97;61.20;101807.66;5012461;28;20025;-77
2022/07/13 09:59:04;;;;;;;13.25;5.30;;;;;;;24.01;61.99;101818.13;5015445;28;20598;-77
2022/07/13 10:01:30;;;;;;;14.52;6.00;;;;;;;24.05;61.49;101816.72;4994005;28;20499;-77
2022/07/13 10:03:56;;;;;;;15.55;5.47;;;;;;;24.07;59.93;101819.28;4995911;28;20037;-77
2022/07/13 10:06:21;;;;;;;13.65;5.25;;;;;;;24.06;59.75;101823.94;5000417;28;20549;-77
2022/07/13 10:08:48;;;;;;;17.08;5.55;;;;;;;24.11;60.18;101819.78;4998731;28;20026;-76
2022/07/13 10:11:13;;;;;;;12.70;5.43;;;;;;;24.08;59.16;101819.09;5005442;28;20049;-76
2022/07/13 10:13:39;;;;;;;12.93;4.88;;;;;;;24.13;60.00;101825.94;5004752;28;20026;-76
2022/07/13 10:16:05;;;;;;;15.88;4.85;;;;;;;24.12;58.72;101827.84;4994357;28;20014;-76
2022/07/13 10:18:35;;;;;;;9.07;3.95;;;;;;;24.16;58.91;101823.72;4998560;28;20061;-76
2022/07/13 10:21:26;;;;;;;10.48;4.25;;;;;;;24.15;58.65;101832.13;5013081;28;20053;-76
2022/07/13 10:23:52;;;;;;;11.70;4.63;;;;;;;24.16;58.37;101826.47;5006871;28;20041;-76
2022/07/13 10:26:24;;;;;;;10.60;4.38;;;;;;;24.19;57.66;101819.72;5014889;28;20022;-76
2022/07/13 10:29:08;;;;;;;10.77;4.55;;;;;;;24.22;58.79;101833.13;5008511;28;20026;-76
2022/07/13 10:31:36;;;;;;;14.10;4.53;;;;;;;24.22;57.42;101827.66;5010083;28;20030;-77
2022/07/13 10:34:02;;;;;;;17.13;5.03;;;;;;;24.22;58.29;101830.38;5002738;28;20053;-77
2022/07/13 10:36:49;;;;;;;11.95;4.20;;;;;;;24.26;58.63;101831.72;5004800;28;20132;-77
2022/07/13 10:39:16;;;;;;;14.88;4.75;;;;;;;24.25;56.64;101839.13;5002730;28;20064;-77
2022/07/13 10:42:07;;;;;;;11.18;4.53;;;;;;;24.29;58.57;101833.25;5011032;28;20034;-77
2022/07/13 10:44:36;;;;;;;10.95;4.07;;;;;;;24.30;57.90;101837.72;5012284;28;20120;-77
2022/07/13 10:47:03;;;;;;;12.02;4.70;;;;;;;24.30;56.62;101830.34;5012238;28;20428;-77
2022/07/13 10:49:38;;;;;;;13.18;4.85;;;;;;;24.34;57.91;101836.34;5007951;28;20037;-77
2022/07/13 10:52:19;;;;;;;14.27;4.95;;;;;;;24.41;58.97;101840.94;4994973;28;20030;-77
2022/07/13 10:55:11;;;;;;;10.75;4.28;;;;;;;24.49;56.81;101836.41;5000388;28;20025;-77
2022/07/13 10:57:39;;;;;;;11.80;4.45;;;;;;;24.56;56.26;101842.91;4994179;28;20038;-77
2022/07/13 11:02:50;;;;;;;14.27;4.78;;;;;;;24.56;56.49;101837.41;5021594;28;20049;-77
2022/07/13 11:05:19;;;;;;;13.05;5.60;;;;;;;24.60;58.33;101847.91;5015977;28;20088;-77
2022/07/13 11:07:48;;;;;;;14.45;5.35;;;;;;;24.55;58.27;101844.78;5031339;28;20053;-77
2022/07/13 11:10:20;;;;;;;14.38;5.18;;;;;;;24.56;59.52;101843.75;5014446;28;20119;-76
2022/07/13 11:12:54;;;;;;;11.20;5.00;;;;;;;24.59;59.26;101839.81;5022550;28;20025;-76
2022/07/13 11:15:20;;;;;;;14.75;5.18;;;;;;;24.55;57.12;101847.53;5008835;28;20496;-76
2022/07/13 11:17:53;;;;;;;11.43;4.97;;;;;;;24.55;58.13;101843.94;5033811;28;20026;-76
2022/07/13 11:20:19;;;;;;;13.13;4.95;;;;;;;24.54;60.02;101844.97;5009098;28;20104;-75
2022/07/13 11:25:50;;;;;;;15.00;4.97;;;;;;;24.55;58.50;101839.28;5030143;28;20083;-76
2022/07/13 11:28:28;;;;;;;14.80;4.85;;;;;;;24.65;55.91;101839.09;5011843;28;20116;-76
2022/07/13 11:30:56;;;;;;;15.02;4.78;;;;;;;24.69;55.42;101829.44;5029673;28;20024;-76